sensor_id;sensor_type;location;lat;lon;timestamp;P1;durP1;ratioP1;P2;durP2;ratioP2
18689;SDS011;9782;52.930;15.562;2023-05-10T05:16:08;7.27;;;4.87;;
18689;SDS011;9782;52.930;15.562;2023-05-10T05:18:36;10.53;;;5.40;;
18689;SDS011;9782;52.930;15.562;2023-05-10T05:21:03;7.73;;;5.10;;
18689;SDS011;9782;52.930;15.562;2023-05-10T05:23:39;12.67;;;5.67;;
18689;SDS011;9782;52.930;15.562;2023-05-10T05:26:05;9.87;;;5.00;;
18689;SDS011;9782;52.930;15.562;2023-05-10T05:28:32;9.67;;;5.20;;
18689;SDS011;9782;52.930;15.562;2023-05-10T05:31:02;10.30;;;5.57;;
18689;SDS011;9782;52.930;15.562;2023-05-10T05:33:30;9.33;;;5.00;;
18689;SDS011;9782;52.930;15.562;2023-05-10T05:35:57;7.33;;;5.10;;
18689;SDS011;9782;52.930;15.562;2023-05-10T05:38:26;10.03;;;5.30;;
18689;SDS011;9782;52.930;15.562;2023-05-10T05:40:53;7.40;;;4.97;;
18689;SDS011;9782;52.930;15.562;2023-05-10T05:43:20;7.50;;;5.40;;
18689;SDS011;9782;52.930;15.562;2023-05-10T05:45:46;8.70;;;5.10;;
18689;SDS011;9782;52.930;15.562;2023-05-10T05:48:13;9.83;;;5.10;;
18689;SDS011;9782;52.930;15.562;2023-05-10T05:50:41;9.43;;;4.60;;
18689;SDS011;9782;52.930;15.562;2023-05-10T05:53:08;8.97;;;5.00;;
18689;SDS011;9782;52.930;15.562;2023-05-10T05:55:35;8.40;;;4.90;;
18689;SDS011;9782;52.930;15.562;2023-05-10T05:58:02;7.80;;;4.50;;
18689;SDS011;9782;52.930;15.562;2023-05-10T06:00:29;8.40;;;5.27;;
18689;SDS011;9782;52.930;15.562;2023-05-10T06:02:56;6.73;;;4.60;;
18689;SDS011;9782;52.930;15.562;2023-05-10T06:05:23;9.50;;;4.73;;
18689;SDS011;9782;52.930;15.562;2023-05-10T06:07:51;7.90;;;4.27;;
18689;SDS011;9782;52.930;15.562;2023-05-10T06:10:18;9.20;;;4.90;;
18689;SDS011;9782;52.930;15.562;2023-05-10T06:12:45;11.27;;;4.80;;
18689;SDS011;9782;52.930;15.562;2023-05-10T06:15:12;7.47;;;4.40;;
18689;SDS011;9782;52.930;15.562;2023-05-10T06:17:39;9.10;;;4.80;;
18689;SDS011;9782;52.930;15.562;2023-05-10T06:20:06;7.80;;;4.40;;
18689;SDS011;9782;52.930;15.562;2023-05-10T06:22:37;7.67;;;4.93;;
18689;SDS011;9782;52.930;15.562;2023-05-10T06:25:06;8.43;;;4.40;;
18689;SDS011;9782;52.930;15.562;2023-05-10T06:27:33;6.23;;;4.33;;
18689;SDS011;9782;52.930;15.562;2023-05-10T06:30:00;8.60;;;4.00;;
18689;SDS011;9782;52.930;15.562;2023-05-10T06:32:28;12.53;;;4.57;;
18689;SDS011;9782;52.930;15.562;2023-05-10T06:34:55;6.00;;;4.20;;
18689;SDS011;9782;52.930;15.562;2023-05-10T06:37:22;8.83;;;4.50;;
18689;SDS011;9782;52.930;15.562;2023-05-10T06:39:49;6.20;;;4.00;;
18689;SDS011;9782;52.930;15.562;2023-05-10T06:42:17;9.77;;;4.10;;
18689;SDS011;9782;52.930;15.562;2023-05-10T06:44:44;10.83;;;4.60;;
18689;SDS011;9782;52.930;15.562;2023-05-10T06:47:11;7.10;;;4.30;;
18689;SDS011;9782;52.930;15.562;2023-05-10T06:49:38;9.00;;;4.23;;
18689;SDS011;9782;52.930;15.562;2023-05-10T06:52:05;6.77;;;3.97;;
18689;SDS011;9782;52.930;15.562;2023-05-10T06:54:32;7.10;;;4.30;;
18689;SDS011;9782;52.930;15.562;2023-05-10T06:56:59;10.30;;;4.37;;
18689;SDS011;9782;52.930;15.562;2023-05-10T06:59:29;5.67;;;4.00;;
18689;SDS011;9782;52.930;15.562;2023-05-10T07:01:56;4.47;;;3.57;;
18689;SDS011;9782;52.930;15.562;2023-05-10T07:04:23;6.90;;;3.90;;
18689;SDS011;9782;52.930;15.562;2023-05-10T07:06:50;8.70;;;3.97;;
18689;SDS011;9782;52.930;15.562;2023-05-10T07:09:17;5.90;;;3.65;;
18689;SDS011;9782;52.930;15.562;2023-05-10T07:11:44;4.70;;;3.95;;
18689;SDS011;9782;52.930;15.562;2023-05-10T07:14:11;6.57;;;4.25;;
18689;SDS011;9782;52.930;15.562;2023-05-10T07:16:39;7.57;;;4.15;;
18689;SDS011;9782;52.930;15.562;2023-05-10T07:19:06;5.65;;;3.85;;
18689;SDS011;9782;52.930;15.562;2023-05-10T07:21:34;7.10;;;3.80;;
18689;SDS011;9782;52.930;15.562;2023-05-10T07:24:01;7.05;;;3.70;;
18689;SDS011;9782;52.930;15.562;2023-05-10T07:26:28;6.82;;;3.53;;
18689;SDS011;9782;52.930;15.562;2023-05-10T07:28:55;9.63;;;3.95;;
18689;SDS011;9782;52.930;15.562;2023-05-10T07:31:21;9.10;;;3.72;;
18689;SDS011;9782;52.930;15.562;2023-05-10T07:33:50;6.18;;;4.78;;
18689;SDS011;9782;52.930;15.562;2023-05-10T07:36:17;8.85;;;4.97;;
18689;SDS011;9782;52.930;15.562;2023-05-10T07:38:44;7.65;;;3.65;;
18689;SDS011;9782;52.930;15.562;2023-05-10T07:41:11;7.20;;;3.88;;
18689;SDS011;9782;52.930;15.562;2023-05-10T07:43:38;6.50;;;3.70;;
18689;SDS011;9782;52.930;15.562;2023-05-10T07:46:05;5.88;;;3.40;;
18689;SDS011;9782;52.930;15.562;2023-05-10T07:48:32;4.50;;;3.30;;
18689;SDS011;9782;52.930;15.562;2023-05-10T07:51:00;9.57;;;3.80;;
18689;SDS011;9782;52.930;15.562;2023-05-10T07:53:27;5.88;;;3.53;;
18689;SDS011;9782;52.930;15.562;2023-05-10T07:55:55;8.05;;;3.55;;
18689;SDS011;9782;52.930;15.562;2023-05-10T07:58:24;7.43;;;3.55;;
18689;SDS011;9782;52.930;15.562;2023-05-10T08:00:51;6.10;;;3.30;;
18689;SDS011;9782;52.930;15.562;2023-05-10T08:03:21;6.85;;;3.58;;
18689;SDS011;9782;52.930;15.562;2023-05-10T08:05:48;7.57;;;3.70;;
18689;SDS011;9782;52.930;15.562;2023-05-10T08:08:16;7.05;;;3.10;;
18689;SDS011;9782;52.930;15.562;2023-05-10T08:10:45;5.93;;;3.15;;
18689;SDS011;9782;52.930;15.562;2023-05-10T08:13:12;7.07;;;3.38;;
18689;SDS011;9782;52.930;15.562;2023-05-10T08:15:38;6.32;;;2.90;;
18689;SDS011;9782;52.930;15.562;2023-05-10T08:18:05;5.65;;;3.08;;
18689;SDS011;9782;52.930;15.562;2023-05-10T08:20:32;5.70;;;3.30;;
18689;SDS011;9782;52.930;15.562;2023-05-10T08:22:59;7.20;;;3.40;;
18689;SDS011;9782;52.930;15.562;2023-05-10T08:25:27;9.82;;;3.47;;
18689;SDS011;9782;52.930;15.562;2023-05-10T08:27:54;6.90;;;3.22;;
18689;SDS011;9782;52.930;15.562;2023-05-10T08:30:21;5.85;;;2.97;;
18689;SDS011;9782;52.930;15.562;2023-05-10T08:32:48;5.45;;;3.60;;
18689;SDS011;9782;52.930;15.562;2023-05-10T08:35:15;8.18;;;3.20;;
18689;SDS011;9782;52.930;15.562;2023-05-10T08:37:42;7.30;;;3.33;;
18689;SDS011;9782;52.930;15.562;2023-05-10T08:40:09;5.63;;;3.20;;
18689;SDS011;9782;52.930;15.562;2023-05-10T08:42:40;7.65;;;3.20;;
18689;SDS011;9782;52.930;15.562;2023-05-10T08:45:09;7.30;;;3.10;;
18689;SDS011;9782;52.930;15.562;2023-05-10T08:47:37;5.10;;;3.35;;
18689;SDS011;9782;52.930;15.562;2023-05-10T08:50:06;10.57;;;3.30;;
18689;SDS011;9782;52.930;15.562;2023-05-10T08:52:33;5.95;;;3.30;;
18689;SDS011;9782;52.930;15.562;2023-05-10T08:55:05;5.15;;;3.03;;
18689;SDS011;9782;52.930;15.562;2023-05-10T08:57:32;6.22;;;3.30;;
18689;SDS011;9782;52.930;15.562;2023-05-10T09:00:01;5.97;;;2.72;;
18689;SDS011;9782;52.930;15.562;2023-05-10T09:02:28;6.72;;;2.50;;
18689;SDS011;9782;52.930;15.562;2023-05-10T09:04:56;4.10;;;2.80;;
18689;SDS011;9782;52.930;15.562;2023-05-10T09:07:23;5.70;;;3.05;;
18689;SDS011;9782;52.930;15.562;2023-05-10T09:09:50;11.73;;;3.03;;
18689;SDS011;9782;52.930;15.562;2023-05-10T09:12:18;12.77;;;2.78;;
18689;SDS011;9782;52.930;15.562;2023-05-10T09:14:45;12.20;;;3.25;;
18689;SDS011;9782;52.930;15.562;2023-05-10T09:17:13;3.78;;;2.60;;
18689;SDS011;9782;52.930;15.562;2023-05-10T09:19:40;5.10;;;2.50;;
18689;SDS011;9782;52.930;15.562;2023-05-10T09:22:07;11.77;;;2.50;;
18689;SDS011;9782;52.930;15.562;2023-05-10T09:24:36;4.50;;;2.53;;
18689;SDS011;9782;52.930;15.562;2023-05-10T09:27:07;16.80;;;2.83;;
18689;SDS011;9782;52.930;15.562;2023-05-10T09:29:41;5.15;;;2.35;;
18689;SDS011;9782;52.930;15.562;2023-05-10T09:32:08;5.18;;;2.17;;
18689;SDS011;9782;52.930;15.562;2023-05-10T09:34:37;9.43;;;2.13;;
18689;SDS011;9782;52.930;15.562;2023-05-10T09:37:05;7.13;;;2.20;;
18689;SDS011;9782;52.930;15.562;2023-05-10T09:39:33;4.90;;;2.35;;
18689;SDS011;9782;52.930;15.562;2023-05-10T09:42:01;7.65;;;2.03;;
18689;SDS011;9782;52.930;15.562;2023-05-10T09:44:30;6.72;;;2.10;;
18689;SDS011;9782;52.930;15.562;2023-05-10T09:46:58;24.85;;;2.83;;
18689;SDS011;9782;52.930;15.562;2023-05-10T09:49:25;6.18;;;1.92;;
18689;SDS011;9782;52.930;15.562;2023-05-10T09:52:01;6.65;;;2.05;;
18689;SDS011;9782;52.930;15.562;2023-05-10T09:54:29;7.95;;;2.35;;
18689;SDS011;9782;52.930;15.562;2023-05-10T09:56:56;14.65;;;2.47;;
18689;SDS011;9782;52.930;15.562;2023-05-10T09:59:24;5.32;;;1.80;;
18689;SDS011;9782;52.930;15.562;2023-05-10T10:01:52;6.88;;;2.00;;
18689;SDS011;9782;52.930;15.562;2023-05-10T10:04:21;8.02;;;1.80;;
18689;SDS011;9782;52.930;15.562;2023-05-10T10:06:58;10.30;;;2.00;;
18689;SDS011;9782;52.930;15.562;2023-05-10T10:09:27;8.27;;;2.10;;
18689;SDS011;9782;52.930;15.562;2023-05-10T10:11:54;13.15;;;3.00;;
18689;SDS011;9782;52.930;15.562;2023-05-10T10:14:22;2.95;;;1.83;;
18689;SDS011;9782;52.930;15.562;2023-05-10T10:16:49;9.52;;;1.90;;
18689;SDS011;9782;52.930;15.562;2023-05-10T10:19:17;14.88;;;2.35;;
18689;SDS011;9782;52.930;15.562;2023-05-10T10:21:44;18.92;;;2.45;;
18689;SDS011;9782;52.930;15.562;2023-05-10T10:24:12;8.82;;;2.33;;
18689;SDS011;9782;52.930;15.562;2023-05-10T10:26:39;4.53;;;2.35;;
18689;SDS011;9782;52.930;15.562;2023-05-10T10:29:10;16.83;;;2.80;;
18689;SDS011;9782;52.930;15.562;2023-05-10T10:31:47;10.57;;;2.53;;
18689;SDS011;9782;52.930;15.562;2023-05-10T10:34:22;5.88;;;2.03;;
18689;SDS011;9782;52.930;15.562;2023-05-10T10:36:53;8.40;;;2.33;;
18689;SDS011;9782;52.930;15.562;2023-05-10T10:39:23;4.38;;;1.95;;
18689;SDS011;9782;52.930;15.562;2023-05-10T10:41:51;7.50;;;2.17;;
18689;SDS011;9782;52.930;15.562;2023-05-10T10:44:22;15.00;;;2.58;;
18689;SDS011;9782;52.930;15.562;2023-05-10T10:47:00;5.53;;;1.98;;
18689;SDS011;9782;52.930;15.562;2023-05-10T10:49:36;20.75;;;3.08;;
18689;SDS011;9782;52.930;15.562;2023-05-10T10:52:23;8.50;;;2.55;;
18689;SDS011;9782;52.930;15.562;2023-05-10T10:54:57;14.50;;;2.67;;
18689;SDS011;9782;52.930;15.562;2023-05-10T10:57:26;9.27;;;2.67;;
18689;SDS011;9782;52.930;15.562;2023-05-10T11:02:50;8.38;;;2.38;;
18689;SDS011;9782;52.930;15.562;2023-05-10T11:05:25;4.93;;;2.10;;
18689;SDS011;9782;52.930;15.562;2023-05-10T11:08:00;9.75;;;2.50;;
18689;SDS011;9782;52.930;15.562;2023-05-10T11:10:36;4.35;;;2.30;;
18689;SDS011;9782;52.930;15.562;2023-05-10T11:13:03;5.40;;;2.30;;
18689;SDS011;9782;52.930;15.562;2023-05-10T11:15:34;6.78;;;2.47;;
18689;SDS011;9782;52.930;15.562;2023-05-10T11:18:17;11.30;;;2.60;;
18689;SDS011;9782;52.930;15.562;2023-05-10T11:20:48;4.15;;;2.50;;
18689;SDS011;9782;52.930;15.562;2023-05-10T11:23:16;9.93;;;2.92;;
18689;SDS011;9782;52.930;15.562;2023-05-10T11:25:46;4.45;;;2.17;;
18689;SDS011;9782;52.930;15.562;2023-05-10T11:28:16;13.50;;;2.85;;
18689;SDS011;9782;52.930;15.562;2023-05-10T11:30:43;5.50;;;2.20;;
18689;SDS011;9782;52.930;15.562;2023-05-10T11:33:14;6.93;;;2.38;;
18689;SDS011;9782;52.930;15.562;2023-05-10T11:35:43;8.52;;;2.70;;
18689;SDS011;9782;52.930;15.562;2023-05-10T11:38:10;5.30;;;2.10;;
18689;SDS011;9782;52.930;15.562;2023-05-10T11:40:38;5.35;;;2.22;;
18689;SDS011;9782;52.930;15.562;2023-05-10T11:43:07;8.95;;;2.17;;
18689;SDS011;9782;52.930;15.562;2023-05-10T11:45:36;9.45;;;2.45;;
18689;SDS011;9782;52.930;15.562;2023-05-10T11:48:03;6.40;;;2.60;;
18689;SDS011;9782;52.930;15.562;2023-05-10T11:50:30;5.72;;;2.50;;
18689;SDS011;9782;52.930;15.562;2023-05-10T11:52:58;8.07;;;2.67;;
18689;SDS011;9782;52.930;15.562;2023-05-10T11:55:25;9.00;;;2.50;;
18689;SDS011;9782;52.930;15.562;2023-05-10T11:57:52;10.00;;;2.78;;
18689;SDS011;9782;52.930;15.562;2023-05-10T12:00:20;6.10;;;2.72;;
18689;SDS011;9782;52.930;15.562;2023-05-10T12:02:47;9.93;;;2.53;;
18689;SDS011;9782;52.930;15.562;2023-05-10T12:05:15;4.65;;;2.33;;
18689;SDS011;9782;52.930;15.562;2023-05-10T12:07:42;6.03;;;2.42;;
18689;SDS011;9782;52.930;15.562;2023-05-10T12:10:09;7.50;;;2.83;;
18689;SDS011;9782;52.930;15.562;2023-05-10T12:12:39;9.65;;;2.75;;
18689;SDS011;9782;52.930;15.562;2023-05-10T12:15:11;5.13;;;2.42;;
18689;SDS011;9782;52.930;15.562;2023-05-10T12:17:44;6.97;;;3.40;;
18689;SDS011;9782;52.930;15.562;2023-05-10T12:20:18;13.98;;;3.97;;
18689;SDS011;9782;52.930;15.562;2023-05-10T12:22:46;5.45;;;3.00;;
18689;SDS011;9782;52.930;15.562;2023-05-10T12:25:15;3.92;;;2.70;;
18689;SDS011;9782;52.930;15.562;2023-05-10T12:27:47;7.25;;;2.38;;
18689;SDS011;9782;52.930;15.562;2023-05-10T12:30:18;10.70;;;2.72;;
18689;SDS011;9782;52.930;15.562;2023-05-10T12:32:48;10.50;;;2.80;;
18689;SDS011;9782;52.930;15.562;2023-05-10T12:35:15;6.38;;;2.50;;
18689;SDS011;9782;52.930;15.562;2023-05-10T12:37:42;7.82;;;2.83;;
18689;SDS011;9782;52.930;15.562;2023-05-10T12:40:10;5.95;;;2.40;;
18689;SDS011;9782;52.930;15.562;2023-05-10T12:42:37;29.80;;;3.53;;
18689;SDS011;9782;52.930;15.562;2023-05-10T12:45:05;8.85;;;2.40;;
18689;SDS011;9782;52.930;15.562;2023-05-10T12:47:33;3.90;;;2.53;;
18689;SDS011;9782;52.930;15.562;2023-05-10T12:50:02;5.72;;;2.30;;
18689;SDS011;9782;52.930;15.562;2023-05-10T12:52:29;3.40;;;2.20;;
18689;SDS011;9782;52.930;15.562;2023-05-10T12:54:57;6.45;;;2.40;;
18689;SDS011;9782;52.930;15.562;2023-05-10T12:57:24;5.22;;;2.30;;
18689;SDS011;9782;52.930;15.562;2023-05-10T12:59:52;9.23;;;2.67;;
18689;SDS011;9782;52.930;15.562;2023-05-10T13:02:18;9.45;;;2.30;;
18689;SDS011;9782;52.930;15.562;2023-05-10T13:04:46;6.10;;;2.60;;
18689;SDS011;9782;52.930;15.562;2023-05-10T13:07:14;6.07;;;2.20;;
18689;SDS011;9782;52.930;15.562;2023-05-10T13:09:41;4.30;;;2.33;;
18689;SDS011;9782;52.930;15.562;2023-05-10T13:12:08;7.13;;;2.60;;
18689;SDS011;9782;52.930;15.562;2023-05-10T13:14:35;6.28;;;2.47;;
18689;SDS011;9782;52.930;15.562;2023-05-10T13:17:02;7.05;;;2.50;;
18689;SDS011;9782;52.930;15.562;2023-05-10T13:19:29;4.70;;;2.20;;
18689;SDS011;9782;52.930;15.562;2023-05-10T13:21:55;4.70;;;2.20;;
18689;SDS011;9782;52.930;15.562;2023-05-10T13:24:24;4.93;;;2.30;;
18689;SDS011;9782;52.930;15.562;2023-05-10T13:26:51;5.93;;;2.75;;
18689;SDS011;9782;52.930;15.562;2023-05-10T13:29:17;7.82;;;2.55;;
18689;SDS011;9782;52.930;15.562;2023-05-10T13:31:45;5.35;;;2.75;;
18689;SDS011;9782;52.930;15.562;2023-05-10T13:34:12;5.70;;;2.20;;
18689;SDS011;9782;52.930;15.562;2023-05-10T13:36:39;6.25;;;2.47;;
18689;SDS011;9782;52.930;15.562;2023-05-10T13:39:06;6.78;;;3.05;;
18689;SDS011;9782;52.930;15.562;2023-05-10T13:41:34;6.63;;;2.65;;
18689;SDS011;9782;52.930;15.562;2023-05-10T13:44:01;6.85;;;2.70;;
18689;SDS011;9782;52.930;15.562;2023-05-10T13:46:28;11.15;;;2.90;;
18689;SDS011;9782;52.930;15.562;2023-05-10T13:48:55;5.43;;;2.65;;
18689;SDS011;9782;52.930;15.562;2023-05-10T13:51:22;7.05;;;2.33;;
18689;SDS011;9782;52.930;15.562;2023-05-10T13:53:49;5.88;;;2.95;;
18689;SDS011;9782;52.930;15.562;2023-05-10T13:56:17;5.47;;;2.40;;
18689;SDS011;9782;52.930;15.562;2023-05-10T13:58:45;9.60;;;2.53;;
18689;SDS011;9782;52.930;15.562;2023-05-10T14:01:12;4.47;;;2.70;;
18689;SDS011;9782;52.930;15.562;2023-05-10T14:03:39;5.72;;;3.10;;
18689;SDS011;9782;52.930;15.562;2023-05-10T14:06:06;9.40;;;3.10;;
18689;SDS011;9782;52.930;15.562;2023-05-10T14:08:33;4.60;;;2.47;;
18689;SDS011;9782;52.930;15.562;2023-05-10T14:11:01;11.13;;;3.38;;
18689;SDS011;9782;52.930;15.562;2023-05-10T14:13:27;9.38;;;2.95;;
18689;SDS011;9782;52.930;15.562;2023-05-10T14:15:56;3.72;;;2.63;;
18689;SDS011;9782;52.930;15.562;2023-05-10T14:18:25;9.57;;;2.65;;
18689;SDS011;9782;52.930;15.562;2023-05-10T14:20:52;10.30;;;2.60;;
18689;SDS011;9782;52.930;15.562;2023-05-10T14:23:19;7.22;;;2.95;;
18689;SDS011;9782;52.930;15.562;2023-05-10T14:25:49;5.85;;;2.47;;
18689;SDS011;9782;52.930;15.562;2023-05-10T14:28:16;8.48;;;2.72;;
18689;SDS011;9782;52.930;15.562;2023-05-10T14:30:43;7.22;;;2.67;;
18689;SDS011;9782;52.930;15.562;2023-05-10T14:33:11;6.60;;;2.90;;
18689;SDS011;9782;52.930;15.562;2023-05-10T14:35:38;7.53;;;2.50;;
18689;SDS011;9782;52.930;15.562;2023-05-10T14:38:05;11.05;;;2.40;;
18689;SDS011;9782;52.930;15.562;2023-05-10T14:40:32;7.47;;;4.45;;
18689;SDS011;9782;52.930;15.562;2023-05-10T14:42:59;5.57;;;3.30;;
18689;SDS011;9782;52.930;15.562;2023-05-10T14:45:26;5.85;;;2.85;;
18689;SDS011;9782;52.930;15.562;2023-05-10T14:47:53;6.47;;;2.67;;
18689;SDS011;9782;52.930;15.562;2023-05-10T14:50:21;4.03;;;2.50;;
18689;SDS011;9782;52.930;15.562;2023-05-10T14:52:48;6.25;;;2.45;;
18689;SDS011;9782;52.930;15.562;2023-05-10T14:55:15;10.77;;;3.10;;
18689;SDS011;9782;52.930;15.562;2023-05-10T14:57:42;6.50;;;2.53;;
18689;SDS011;9782;52.930;15.562;2023-05-10T15:00:12;5.68;;;2.72;;
18689;SDS011;9782;52.930;15.562;2023-05-10T15:02:41;4.63;;;2.45;;
18689;SDS011;9782;52.930;15.562;2023-05-10T15:05:08;5.05;;;2.70;;
18689;SDS011;9782;52.930;15.562;2023-05-10T15:07:36;6.47;;;2.67;;
18689;SDS011;9782;52.930;15.562;2023-05-10T15:10:03;7.85;;;2.55;;
18689;SDS011;9782;52.930;15.562;2023-05-10T15:12:31;5.82;;;2.70;;
18689;SDS011;9782;52.930;15.562;2023-05-10T15:14:58;4.97;;;2.70;;
18689;SDS011;9782;52.930;15.562;2023-05-10T15:17:25;4.00;;;2.97;;
18689;SDS011;9782;52.930;15.562;2023-05-10T15:19:51;5.00;;;2.60;;
18689;SDS011;9782;52.930;15.562;2023-05-10T15:22:18;3.95;;;2.78;;
18689;SDS011;9782;52.930;15.562;2023-05-10T15:24:47;5.30;;;2.42;;
18689;SDS011;9782;52.930;15.562;2023-05-10T15:27:14;5.55;;;2.78;;
18689;SDS011;9782;52.930;15.562;2023-05-10T15:29:41;4.25;;;2.38;;
18689;SDS011;9782;52.930;15.562;2023-05-10T15:32:07;6.72;;;2.63;;
18689;SDS011;9782;52.930;15.562;2023-05-10T15:34:34;9.20;;;2.88;;
18689;SDS011;9782;52.930;15.562;2023-05-10T15:37:02;6.53;;;2.53;;
18689;SDS011;9782;52.930;15.562;2023-05-10T15:39:29;7.00;;;2.53;;
18689;SDS011;9782;52.930;15.562;2023-05-10T15:41:57;4.60;;;2.40;;
18689;SDS011;9782;52.930;15.562;2023-05-10T15:44:23;3.38;;;2.70;;
18689;SDS011;9782;52.930;15.562;2023-05-10T15:46:51;7.03;;;2.78;;
18689;SDS011;9782;52.930;15.562;2023-05-10T15:49:18;4.57;;;2.90;;
18689;SDS011;9782;52.930;15.562;2023-05-10T15:51:45;4.05;;;2.58;;
18689;SDS011;9782;52.930;15.562;2023-05-10T15:54:12;5.35;;;2.70;;
18689;SDS011;9782;52.930;15.562;2023-05-10T15:56:39;8.90;;;2.58;;
18689;SDS011;9782;52.930;15.562;2023-05-10T15:59:07;4.25;;;2.58;;
18689;SDS011;9782;52.930;15.562;2023-05-10T16:01:35;4.32;;;2.90;;
18689;SDS011;9782;52.930;15.562;2023-05-10T16:04:02;4.43;;;2.60;;
18689;SDS011;9782;52.930;15.562;2023-05-10T16:06:29;6.00;;;2.78;;
18689;SDS011;9782;52.930;15.562;2023-05-10T16:08:56;3.53;;;2.70;;
18689;SDS011;9782;52.930;15.562;2023-05-10T16:11:23;8.77;;;3.25;;
18689;SDS011;9782;52.930;15.562;2023-05-10T16:13:50;3.80;;;2.90;;
18689;SDS011;9782;52.930;15.562;2023-05-10T16:16:19;6.47;;;2.70;;
18689;SDS011;9782;52.930;15.562;2023-05-10T16:18:45;9.00;;;3.55;;
18689;SDS011;9782;52.930;15.562;2023-05-10T16:21:12;12.30;;;3.90;;
18689;SDS011;9782;52.930;15.562;2023-05-10T16:23:39;3.00;;;2.70;;
18689;SDS011;9782;52.930;15.562;2023-05-10T16:26:07;4.10;;;2.95;;
18689;SDS011;9782;52.930;15.562;2023-05-10T16:28:34;7.38;;;3.00;;
18689;SDS011;9782;52.930;15.562;2023-05-10T16:31:01;5.22;;;3.03;;
18689;SDS011;9782;52.930;15.562;2023-05-10T16:33:30;7.00;;;3.00;;
18689;SDS011;9782;52.930;15.562;2023-05-10T16:35:57;5.72;;;2.90;;
18689;SDS011;9782;52.930;15.562;2023-05-10T16:38:23;4.25;;;2.75;;
18689;SDS011;9782;52.930;15.562;2023-05-10T16:40:50;6.47;;;2.95;;
18689;SDS011;9782;52.930;15.562;2023-05-10T16:43:17;4.00;;;2.90;;
18689;SDS011;9782;52.930;15.562;2023-05-10T16:45:44;8.48;;;2.92;;
18689;SDS011;9782;52.930;15.562;2023-05-10T16:48:11;9.75;;;3.13;;
18689;SDS011;9782;52.930;15.562;2023-05-10T16:50:39;6.18;;;2.90;;
18689;SDS011;9782;52.930;15.562;2023-05-10T16:53:08;6.32;;;2.70;;
18689;SDS011;9782;52.930;15.562;2023-05-10T16:55:35;8.65;;;2.72;;
18689;SDS011;9782;52.930;15.562;2023-05-10T16:58:03;7.65;;;4.10;;
18689;SDS011;9782;52.930;15.562;2023-05-10T17:00:30;8.23;;;6.30;;
18689;SDS011;9782;52.930;15.562;2023-05-10T17:02:56;5.70;;;3.10;;
18689;SDS011;9782;52.930;15.562;2023-05-10T17:05:23;5.18;;;3.00;;
18689;SDS011;9782;52.930;15.562;2023-05-10T17:07:52;7.10;;;2.50;;
18689;SDS011;9782;52.930;15.562;2023-05-10T17:10:20;4.22;;;2.85;;
18689;SDS011;9782;52.930;15.562;2023-05-10T17:12:47;5.15;;;3.10;;
18689;SDS011;9782;52.930;15.562;2023-05-10T17:15:13;5.63;;;3.30;;
18689;SDS011;9782;52.930;15.562;2023-05-10T17:17:42;4.18;;;2.78;;
18689;SDS011;9782;52.930;15.562;2023-05-10T17:20:09;3.90;;;3.20;;
18689;SDS011;9782;52.930;15.562;2023-05-10T17:22:37;4.60;;;2.97;;
18689;SDS011;9782;52.930;15.562;2023-05-10T17:25:05;5.82;;;2.97;;
18689;SDS011;9782;52.930;15.562;2023-05-10T17:27:33;5.68;;;2.92;;
18689;SDS011;9782;52.930;15.562;2023-05-10T17:29:59;4.95;;;3.10;;
18689;SDS011;9782;52.930;15.562;2023-05-10T17:32:26;5.80;;;2.92;;
18689;SDS011;9782;52.930;15.562;2023-05-10T17:34:53;3.58;;;3.10;;
18689;SDS011;9782;52.930;15.562;2023-05-10T17:37:20;4.53;;;3.25;;
18689;SDS011;9782;52.930;15.562;2023-05-10T17:39:47;4.93;;;2.85;;
18689;SDS011;9782;52.930;15.562;2023-05-10T17:42:15;4.82;;;2.70;;
18689;SDS011;9782;52.930;15.562;2023-05-10T17:44:43;6.38;;;2.90;;
18689;SDS011;9782;52.930;15.562;2023-05-10T17:47:09;3.95;;;2.97;;
18689;SDS011;9782;52.930;15.562;2023-05-10T17:49:36;3.95;;;2.88;;
18689;SDS011;9782;52.930;15.562;2023-05-10T17:52:04;6.20;;;2.80;;
18689;SDS011;9782;52.930;15.562;2023-05-10T17:54:31;3.65;;;2.80;;
18689;SDS011;9782;52.930;15.562;2023-05-10T17:56:58;6.90;;;3.20;;
18689;SDS011;9782;52.930;15.562;2023-05-10T17:59:26;4.70;;;2.80;;
18689;SDS011;9782;52.930;15.562;2023-05-10T18:01:53;6.25;;;2.80;;
18689;SDS011;9782;52.930;15.562;2023-05-10T18:04:20;3.92;;;2.95;;
18689;SDS011;9782;52.930;15.562;2023-05-10T18:06:46;6.13;;;3.58;;
18689;SDS011;9782;52.930;15.562;2023-05-10T18:09:13;4.95;;;3.28;;
18689;SDS011;9782;52.930;15.562;2023-05-10T18:11:41;4.97;;;2.60;;
18689;SDS011;9782;52.930;15.562;2023-05-10T18:14:08;5.40;;;3.00;;
18689;SDS011;9782;52.930;15.562;2023-05-10T18:16:36;6.25;;;2.65;;
18689;SDS011;9782;52.930;15.562;2023-05-10T18:19:03;4.40;;;2.70;;
18689;SDS011;9782;52.930;15.562;2023-05-10T18:21:30;5.90;;;2.75;;
18689;SDS011;9782;52.930;15.562;2023-05-10T18:23:57;5.28;;;3.25;;
18689;SDS011;9782;52.930;15.562;2023-05-10T18:26:23;3.13;;;2.70;;
18689;SDS011;9782;52.930;15.562;2023-05-10T18:28:51;3.85;;;3.00;;
18689;SDS011;9782;52.930;15.562;2023-05-10T18:31:18;3.45;;;2.90;;
18689;SDS011;9782;52.930;15.562;2023-05-10T18:33:46;5.60;;;3.25;;
18689;SDS011;9782;52.930;15.562;2023-05-10T18:36:13;3.78;;;3.00;;
18689;SDS011;9782;52.930;15.562;2023-05-10T18:38:40;4.75;;;3.22;;
18689;SDS011;9782;52.930;15.562;2023-05-10T18:41:07;5.15;;;3.20;;
18689;SDS011;9782;52.930;15.562;2023-05-10T18:43:36;7.57;;;3.10;;
18689;SDS011;9782;52.930;15.562;2023-05-10T18:46:03;9.20;;;3.22;;
18689;SDS011;9782;52.930;15.562;2023-05-10T18:48:30;6.03;;;3.40;;
18689;SDS011;9782;52.930;15.562;2023-05-10T18:50:58;3.20;;;2.90;;
18689;SDS011;9782;52.930;15.562;2023-05-10T18:53:25;4.20;;;3.28;;
18689;SDS011;9782;52.930;15.562;2023-05-10T18:55:54;6.65;;;3.08;;
18689;SDS011;9782;52.930;15.562;2023-05-10T18:58:22;5.80;;;3.00;;
18689;SDS011;9782;52.930;15.562;2023-05-10T19:00:50;5.47;;;3.40;;
18689;SDS011;9782;52.930;15.562;2023-05-10T19:03:17;3.97;;;3.35;;
18689;SDS011;9782;52.930;15.562;2023-05-10T19:05:44;6.43;;;3.50;;
18689;SDS011;9782;52.930;15.562;2023-05-10T19:08:14;4.03;;;3.05;;
18689;SDS011;9782;52.930;15.562;2023-05-10T19:10:41;4.93;;;3.30;;
18689;SDS011;9782;52.930;15.562;2023-05-10T19:13:08;4.57;;;3.30;;
18689;SDS011;9782;52.930;15.562;2023-05-10T19:15:34;4.05;;;3.00;;
18689;SDS011;9782;52.930;15.562;2023-05-10T19:18:01;3.85;;;3.20;;
18689;SDS011;9782;52.930;15.562;2023-05-10T19:20:31;5.15;;;3.15;;
18689;SDS011;9782;52.930;15.562;2023-05-10T19:22:57;3.88;;;3.28;;
18689;SDS011;9782;52.930;15.562;2023-05-10T19:25:26;4.93;;;3.42;;
18689;SDS011;9782;52.930;15.562;2023-05-10T19:27:54;4.03;;;3.63;;
18689;SDS011;9782;52.930;15.562;2023-05-10T19:30:22;10.13;;;3.55;;
18689;SDS011;9782;52.930;15.562;2023-05-10T19:32:49;5.88;;;3.90;;
18689;SDS011;9782;52.930;15.562;2023-05-10T19:35:15;4.28;;;3.33;;
18689;SDS011;9782;52.930;15.562;2023-05-10T19:37:42;5.60;;;3.78;;
18689;SDS011;9782;52.930;15.562;2023-05-10T19:40:11;6.63;;;3.60;;
18689;SDS011;9782;52.930;15.562;2023-05-10T19:42:41;5.93;;;3.60;;
18689;SDS011;9782;52.930;15.562;2023-05-10T19:45:08;9.60;;;3.80;;
18689;SDS011;9782;52.930;15.562;2023-05-10T19:47:35;5.95;;;4.10;;
18689;SDS011;9782;52.930;15.562;2023-05-10T19:50:02;7.78;;;3.70;;
18689;SDS011;9782;52.930;15.562;2023-05-10T19:52:31;3.70;;;3.30;;
18689;SDS011;9782;52.930;15.562;2023-05-10T19:54:57;5.63;;;3.65;;
18689;SDS011;9782;52.930;15.562;2023-05-10T19:57:24;5.93;;;3.60;;
18689;SDS011;9782;52.930;15.562;2023-05-10T19:59:52;5.60;;;3.63;;
18689;SDS011;9782;52.930;15.562;2023-05-10T20:02:19;5.20;;;3.80;;
18689;SDS011;9782;52.930;15.562;2023-05-10T20:04:46;7.00;;;3.60;;
18689;SDS011;9782;52.930;15.562;2023-05-10T20:07:13;4.35;;;3.55;;